Maran Pythia — SVAQ5 — position and weather

sailwx.info

Track history (hours):
 
Tides and Currents Weather Stations Pressure Air Temp Water Temp Dewpoint Dewpoint Depression Visibility Wind Speed Wind Dir Waves Ship Positions

Maran Pythia

Last reported at 2014-Nov-28 16:33 UTC. Time now 2014-Nov-28 16:57 UTC.
Position N 44°35' E 037°30'.

Length 274 m; draft 9.1 m.

Type: Tanker. MMSI: 240893000.

Date/timePositionNaut miles runAvg speedWind from/ knotsBaromVisibWave heightAir tempDewpointWater temp
2014-Nov-28 16:33N 44°35' E 037°30'1 1.2
2014-Nov-28 15:33N 44°34' E 037°31'1 1.0
2014-Nov-28 14:33N 44°34' E 037°32'1 0.5
2014-Nov-28 13:33N 44°34' E 037°33'3 2.9
2014-Nov-28 12:33N 44°35' E 037°30'8 8.4
2014-Nov-28 11:33N 44°36' E 037°18'1 0.7
2014-Nov-28 10:33N 44°36' E 037°19'1 1.4
2014-Nov-28 09:33N 44°36' E 037°21'3 1.5
2014-Nov-28 07:33N 44°35' E 037°25'1 1.4
2014-Nov-28 06:30N 44°35' E 037°27'1 1.4
2014-Nov-28 05:31N 44°35' E 037°29'2 1.7
2014-Nov-28 04:33N 44°34' E 037°31'2 1.8
2014-Nov-28 03:33N 44°34' E 037°33'6 5.7
2014-Nov-28 02:33N 44°33' E 037°25'2 0.5
2014-Nov-27 21:27N 44°34' E 037°28'2 1.7
2014-Nov-27 20:33N 44°34' E 037°30'3 2.8
2014-Nov-27 19:33N 44°34' E 037°34'7 6.8
2014-Nov-27 18:33N 44°36' E 037°43'1 1.1
2014-Nov-27 17:33N 44°37' E 037°45'3 3.2
2014-Nov-27 16:33N 44°35' E 037°40'4 4.5
2014-Nov-27 15:33N 44°31' E 037°38'1312.5
2014-Nov-27 14:33N 44°23' E 037°25'38714.3
2014-Nov-26 11:33N 41°25' E 029°36'1414.5
2014-Nov-26 10:34N 41°18' E 029°19'23 9.5
2014-Nov-26 08:05N 41°00' E 028°60'5 8.2
2014-Nov-26 07:31N 40°55' E 028°59'8 8.1
2014-Nov-26 06:31N 40°48' E 028°55'7 7.5
2014-Nov-26 05:33N 40°41' E 028°59'1 0.9
2014-Nov-26 04:33N 40°42' E 028°58'1 0.8
2014-Nov-26 03:33N 40°42' E 028°58'1 0.7
2014-Nov-26 02:33N 40°43' E 028°57'1 0.7
2014-Nov-26 01:33N 40°43' E 028°56'1 0.7
2014-Nov-26 00:33N 40°44' E 028°56'1 0.7
2014-Nov-25 23:32N 40°44' E 028°55'1 0.7
2014-Nov-25 22:33N 40°45' E 028°55'1 0.9
2014-Nov-25 21:33N 40°46' E 028°54'4 3.5
2014-Nov-25 20:33N 40°49' E 028°53'9 8.8
2014-Nov-25 19:28N 40°50' E 028°41'9 8.7
2014-Nov-25 18:29N 40°49' E 028°29'  
2014-Nov-19 06:29N 38°29' E 024°59'1411.1
2014-Nov-19 05:13N 38°16' E 024°51'2010.9
2014-Nov-19 03:22N 37°58' E 024°40'910.9
2014-Nov-19 02:34N 37°50' E 024°36'1111.2
2014-Nov-19 01:33N 37°39' E 024°35'1110.8
2014-Nov-19 00:33N 37°31' E 024°25'1211.6
2014-Nov-18 23:33N 37°22' E 024°15'1111.5
2014-Nov-18 22:33N 37°12' E 024°08'1110.9
2014-Nov-18 21:33N 37°04' E 023°60'1110.8
2014-Nov-18 20:33N 36°55' E 023°52'1111.4
2014-Nov-18 19:33N 36°45' E 023°44'1111.2
2014-Nov-18 18:32N 36°36' E 023°36'1110.3
2014-Nov-18 17:27N 36°26' E 023°29'  
Track history (hours):
 
Tides and Currents Weather Stations Pressure Air Temp Water Temp Dewpoint Dewpoint Depression Visibility Wind Speed Wind Dir Waves Ship Positions

Maran Pythia

Last reported at 2014-Nov-28 16:33 UTC. Time now 2014-Nov-28 16:57 UTC.
Position N 44°35' E 037°30'.

Length 274 m; draft 9.1 m.

Type: Tanker. MMSI: 240893000.

Date/timePositionNaut miles runAvg speedWind from/ knotsBaromVisibWave heightAir tempDewpointWater temp
2014-Nov-28 16:33N 44°35' E 037°30'1 1.2
2014-Nov-28 15:33N 44°34' E 037°31'1 1.0
2014-Nov-28 14:33N 44°34' E 037°32'1 0.5
2014-Nov-28 13:33N 44°34' E 037°33'3 2.9
2014-Nov-28 12:33N 44°35' E 037°30'8 8.4
2014-Nov-28 11:33N 44°36' E 037°18'1 0.7
2014-Nov-28 10:33N 44°36' E 037°19'1 1.4
2014-Nov-28 09:33N 44°36' E 037°21'3 1.5
2014-Nov-28 07:33N 44°35' E 037°25'1 1.4
2014-Nov-28 06:30N 44°35' E 037°27'1 1.4
2014-Nov-28 05:31N 44°35' E 037°29'2 1.7
2014-Nov-28 04:33N 44°34' E 037°31'2 1.8
2014-Nov-28 03:33N 44°34' E 037°33'6 5.7
2014-Nov-28 02:33N 44°33' E 037°25'2 0.5
2014-Nov-27 21:27N 44°34' E 037°28'2 1.7
2014-Nov-27 20:33N 44°34' E 037°30'3 2.8
2014-Nov-27 19:33N 44°34' E 037°34'7 6.8
2014-Nov-27 18:33N 44°36' E 037°43'1 1.1
2014-Nov-27 17:33N 44°37' E 037°45'3 3.2
2014-Nov-27 16:33N 44°35' E 037°40'4 4.5
2014-Nov-27 15:33N 44°31' E 037°38'1312.5
2014-Nov-27 14:33N 44°23' E 037°25'38714.3
2014-Nov-26 11:33N 41°25' E 029°36'1414.5
2014-Nov-26 10:34N 41°18' E 029°19'23 9.5
2014-Nov-26 08:05N 41°00' E 028°60'5 8.2
2014-Nov-26 07:31N 40°55' E 028°59'8 8.1
2014-Nov-26 06:31N 40°48' E 028°55'7 7.5
2014-Nov-26 05:33N 40°41' E 028°59'1 0.9
2014-Nov-26 04:33N 40°42' E 028°58'1 0.8
2014-Nov-26 03:33N 40°42' E 028°58'1 0.7
2014-Nov-26 02:33N 40°43' E 028°57'1 0.7
2014-Nov-26 01:33N 40°43' E 028°56'1 0.7
2014-Nov-26 00:33N 40°44' E 028°56'1 0.7
2014-Nov-25 23:32N 40°44' E 028°55'1 0.7
2014-Nov-25 22:33N 40°45' E 028°55'1 0.9
2014-Nov-25 21:33N 40°46' E 028°54'4 3.5
2014-Nov-25 20:33N 40°49' E 028°53'9 8.8
2014-Nov-25 19:28N 40°50' E 028°41'9 8.7
2014-Nov-25 18:29N 40°49' E 028°29'  
2014-Nov-19 06:29N 38°29' E 024°59'1411.1
2014-Nov-19 05:13N 38°16' E 024°51'2010.9
2014-Nov-19 03:22N 37°58' E 024°40'910.9
2014-Nov-19 02:34N 37°50' E 024°36'1111.2
2014-Nov-19 01:33N 37°39' E 024°35'1110.8
2014-Nov-19 00:33N 37°31' E 024°25'1211.6
2014-Nov-18 23:33N 37°22' E 024°15'1111.5
2014-Nov-18 22:33N 37°12' E 024°08'1110.9
2014-Nov-18 21:33N 37°04' E 023°60'1110.8
2014-Nov-18 20:33N 36°55' E 023°52'1111.4
2014-Nov-18 19:33N 36°45' E 023°44'1111.2
2014-Nov-18 18:32N 36°36' E 023°36'1110.3
2014-Nov-18 17:27N 36°26' E 023°29'  

Dump ship's entire track history